createdAt,value
2023-01-18T00:04:27.003Z,3.95
2023-01-18T00:09:28.879Z,3.97
2023-01-18T00:14:30.819Z,6.70
2023-01-18T00:19:34.156Z,4.38
2023-01-18T00:24:36.144Z,7.70
2023-01-18T00:29:39.154Z,5.90
2023-01-18T00:34:41.865Z,10.55
2023-01-18T00:39:43.493Z,5.57
2023-01-18T00:44:45.604Z,7.40
2023-01-18T00:49:47.587Z,11.73
2023-01-18T00:54:49.497Z,9.93
2023-01-18T00:59:51.399Z,8.73
2023-01-18T01:05:12.198Z,10.10
2023-01-18T01:10:14.216Z,10.82
2023-01-18T01:15:34.626Z,12.77
2023-01-18T01:20:55.012Z,12.43
2023-01-18T01:26:05.884Z,14.57
2023-01-18T01:31:10.803Z,13.25
2023-01-18T01:36:15.396Z,14.00
2023-01-18T01:41:23.952Z,11.20
2023-01-18T01:46:33.958Z,9.15
2023-01-18T01:51:39.894Z,8.73
2023-01-18T01:56:43.765Z,7.60
2023-01-18T02:01:46.658Z,8.32
2023-01-18T02:06:48.698Z,7.35
2023-01-18T02:11:55.536Z,8.57
2023-01-18T02:17:12.285Z,9.23
2023-01-18T02:22:47.983Z,10.77
2023-01-18T02:28:07.179Z,8.30
2023-01-18T02:33:15.710Z,9.27
2023-01-18T02:38:37.670Z,10.23
2023-01-18T02:44:00.830Z,10.63
2023-01-18T02:49:22.838Z,10.00
2023-01-18T02:54:24.776Z,10.05
2023-01-18T02:59:33.299Z,10.32
2023-01-18T03:04:54.484Z,12.65
2023-01-18T03:09:58.767Z,9.18
2023-01-18T03:15:30.443Z,11.90
2023-01-18T03:20:38.174Z,10.07
2023-01-18T03:25:45.420Z,10.80
2023-01-18T03:31:08.892Z,10.60
2023-01-18T03:36:42.215Z,11.27
2023-01-18T03:41:49.368Z,11.32
2023-01-18T03:46:51.799Z,11.57
2023-01-18T03:52:15.543Z,13.63
2023-01-18T03:57:25.909Z,13.73
2023-01-18T04:02:28.692Z,14.77
2023-01-18T04:07:33.760Z,14.43
2023-01-18T04:12:35.668Z,14.07
2023-01-18T04:17:37.501Z,14.23
2023-01-18T04:22:39.686Z,14.05
2023-01-18T04:27:41.576Z,14.38
2023-01-18T04:32:46.289Z,14.88
2023-01-18T04:37:53.059Z,13.68
2023-01-18T04:42:55.221Z,13.88
2023-01-18T04:47:57.250Z,12.80
2023-01-18T04:52:59.426Z,13.73
2023-01-18T04:58:01.366Z,11.93
2023-01-18T05:03:03.161Z,12.43
2023-01-18T05:08:05.079Z,14.85
2023-01-18T05:13:07.374Z,13.18
2023-01-18T05:18:09.123Z,15.60
2023-01-18T05:23:11.193Z,13.48
2023-01-18T05:28:12.861Z,15.90
2023-01-18T05:33:14.558Z,17.10
2023-01-18T05:38:16.638Z,15.82
2023-01-18T05:43:19.884Z,17.98
2023-01-18T05:48:22.013Z,17.58
2023-01-18T05:53:24.348Z,15.73
2023-01-18T05:58:27.389Z,13.70
2023-01-18T06:03:29.166Z,16.20
2023-01-18T06:08:30.874Z,17.38
2023-01-18T06:13:32.996Z,17.33
2023-01-18T06:18:34.949Z,16.88
2023-01-18T06:23:36.603Z,19.50
2023-01-18T06:28:38.243Z,20.58
2023-01-18T06:33:40.177Z,19.88
2023-01-18T06:38:43.859Z,21.00
2023-01-18T06:43:47.476Z,21.38
2023-01-18T06:48:53.999Z,23.17
2023-01-18T06:54:05.526Z,20.38
2023-01-18T06:59:11.972Z,24.02
2023-01-18T07:04:14.265Z,24.95
2023-01-18T07:09:18.441Z,33.42
2023-01-18T07:14:21.790Z,33.80
2023-01-18T07:19:30.878Z,36.40
2023-01-18T07:24:36.346Z,27.23
2023-01-18T07:29:39.752Z,25.23
2023-01-18T07:34:46.642Z,26.95
2023-01-18T07:39:53.208Z,29.45
2023-01-18T07:45:03.661Z,34.30
2023-01-18T07:50:07.065Z,26.50
2023-01-18T07:55:17.124Z,21.90
2023-01-18T08:00:22.966Z,29.40
2023-01-18T08:05:32.000Z,23.38
2023-01-18T08:10:38.470Z,21.77
2023-01-18T08:15:46.231Z,22.88
2023-01-18T08:21:16.893Z,18.98
2023-01-18T08:31:22.021Z,19.27
2023-01-18T08:36:25.796Z,16.50
2023-01-18T08:41:31.160Z,18.15
2023-01-18T08:46:32.977Z,16.85
2023-01-18T08:51:34.852Z,15.68
2023-01-18T08:56:36.710Z,18.95
2023-01-18T09:01:38.629Z,17.05
2023-01-18T09:06:40.574Z,17.33
2023-01-18T09:11:42.317Z,17.42
2023-01-18T09:16:44.528Z,15.98
2023-01-18T09:21:46.760Z,15.98
2023-01-18T09:26:52.396Z,17.17
2023-01-18T09:31:55.958Z,16.55
2023-01-18T09:36:58.266Z,16.65
2023-01-18T09:42:02.342Z,16.05
2023-01-18T09:47:24.181Z,16.98
2023-01-18T09:52:51.584Z,16.42
2023-01-18T09:57:56.578Z,20.48
2023-01-18T10:03:02.723Z,18.05
2023-01-18T10:08:13.536Z,25.48
2023-01-18T10:13:24.365Z,21.83
2023-01-18T10:18:26.224Z,20.60
2023-01-18T10:23:40.746Z,21.13
2023-01-18T10:28:55.503Z,23.20
2023-01-18T10:34:01.172Z,21.90
2023-01-18T10:39:13.410Z,20.90
2023-01-18T10:44:15.008Z,21.08
2023-01-18T10:49:40.930Z,18.45
2023-01-18T10:54:50.067Z,20.85
2023-01-18T10:59:53.760Z,19.20
2023-01-18T11:05:04.434Z,20.35
2023-01-18T11:10:09.694Z,19.15
2023-01-18T11:15:14.585Z,16.70
2023-01-18T11:20:23.391Z,12.63
2023-01-18T11:25:40.814Z,12.43
2023-01-18T11:31:00.829Z,13.98
2023-01-18T11:36:03.517Z,14.27
2023-01-18T11:41:20.100Z,12.48
2023-01-18T11:46:35.065Z,8.68
2023-01-18T11:51:45.902Z,7.97
2023-01-18T11:56:55.859Z,6.38
2023-01-18T12:02:35.453Z,6.63
2023-01-18T12:08:06.860Z,6.30
2023-01-18T12:13:33.848Z,6.10
2023-01-18T12:19:18.106Z,6.97
2023-01-18T12:24:34.006Z,6.90
2023-01-18T12:29:50.590Z,6.43
2023-01-18T12:35:23.814Z,6.43
2023-01-18T12:40:48.641Z,6.05
2023-01-18T12:46:19.445Z,7.03
2023-01-18T12:51:24.705Z,6.05
2023-01-18T12:56:33.177Z,7.25
2023-01-18T13:01:42.903Z,5.88
2023-01-18T13:06:47.276Z,5.20
2023-01-18T13:11:49.776Z,6.15
2023-01-18T13:17:04.308Z,5.75
2023-01-18T13:22:48.000Z,7.10
2023-01-18T13:28:00.688Z,7.53
2023-01-18T13:33:13.757Z,7.43
2023-01-18T13:38:27.500Z,7.43
2023-01-18T13:43:34.299Z,8.20
2023-01-18T13:48:45.409Z,8.55
2023-01-18T13:53:49.799Z,8.80
2023-01-18T13:58:55.028Z,9.25
2023-01-18T14:03:58.264Z,8.18
2023-01-18T14:09:18.332Z,8.52
2023-01-18T14:14:20.407Z,8.45
2023-01-18T14:19:23.056Z,8.52
2023-01-18T14:24:28.863Z,7.50
2023-01-18T14:29:44.453Z,7.47
2023-01-18T14:34:46.345Z,6.15
2023-01-18T14:39:48.191Z,6.57
2023-01-18T14:44:58.164Z,6.47
2023-01-18T14:50:04.803Z,6.45
2023-01-18T14:55:22.305Z,7.43
2023-01-18T15:00:24.927Z,7.47
2023-01-18T15:05:29.779Z,17.40
2023-01-18T15:10:32.004Z,7.43
2023-01-18T15:15:40.678Z,7.13
2023-01-18T15:21:02.337Z,6.45
2023-01-18T15:26:04.223Z,8.00
2023-01-18T15:31:13.559Z,7.88
2023-01-18T15:36:16.963Z,7.90
2023-01-18T15:41:18.659Z,7.68
2023-01-18T15:46:20.608Z,7.47
2023-01-18T15:51:42.886Z,7.25
2023-01-18T15:56:46.228Z,8.05
2023-01-18T16:02:13.614Z,7.80
2023-01-18T16:07:37.531Z,7.53
2023-01-18T16:12:40.414Z,8.70
2023-01-18T16:17:44.870Z,8.95
2023-01-18T16:22:48.313Z,7.47
2023-01-18T16:27:53.027Z,7.68
2023-01-18T16:32:54.734Z,7.25
2023-01-18T16:37:57.934Z,7.43
2023-01-18T16:43:07.573Z,8.50
2023-01-18T16:48:16.981Z,8.57
2023-01-18T16:53:18.831Z,7.93
2023-01-18T16:58:21.385Z,8.00
2023-01-18T17:03:23.753Z,8.23
2023-01-18T17:08:25.487Z,7.70
2023-01-18T17:13:27.359Z,7.53
2023-01-18T17:18:29.043Z,8.23
2023-01-18T17:23:30.716Z,7.72
2023-01-18T17:28:32.553Z,7.25
2023-01-18T17:33:38.505Z,7.32
2023-01-18T17:38:40.387Z,6.88
2023-01-18T17:43:42.112Z,6.90
2023-01-18T17:48:44.489Z,7.65
2023-01-18T17:53:47.943Z,6.70
2023-01-18T17:58:54.355Z,8.05
2023-01-18T18:09:12.748Z,7.32
2023-01-18T18:14:14.943Z,7.45
2023-01-18T18:19:16.898Z,7.25
2023-01-18T18:24:18.896Z,7.25
2023-01-18T18:29:20.915Z,7.88
2023-01-18T18:34:22.759Z,7.35
2023-01-18T18:39:24.775Z,7.38
2023-01-18T18:44:27.721Z,6.78
2023-01-18T18:49:29.853Z,7.32
2023-01-18T18:54:31.698Z,7.53
2023-01-18T18:59:33.347Z,6.45
2023-01-18T19:04:35.112Z,5.93
2023-01-18T19:09:37.087Z,5.78
2023-01-18T19:14:39.219Z,6.07
2023-01-18T19:19:41.097Z,6.63
2023-01-18T19:24:43.341Z,6.38
2023-01-18T19:29:45.203Z,6.28
2023-01-18T19:34:47.136Z,6.10
2023-01-18T19:39:49.076Z,6.03
2023-01-18T19:44:53.827Z,5.82
2023-01-18T19:49:57.574Z,7.50
2023-01-18T19:54:59.473Z,6.45
2023-01-18T20:00:07.124Z,6.38
2023-01-18T20:05:13.649Z,6.05
2023-01-18T20:10:20.173Z,7.00
2023-01-18T20:15:23.113Z,6.60
2023-01-18T20:20:32.608Z,6.25
2023-01-18T20:25:34.677Z,6.40
2023-01-18T20:30:36.780Z,6.50
2023-01-18T20:35:39.184Z,7.63
2023-01-18T20:40:41.146Z,7.57
2023-01-18T20:45:42.969Z,7.32
2023-01-18T20:50:44.730Z,7.85
2023-01-18T20:55:46.671Z,7.50
2023-01-18T21:00:49.268Z,7.53
2023-01-18T21:05:53.459Z,7.55
2023-01-18T21:10:55.263Z,7.47
2023-01-18T21:15:58.791Z,7.60
2023-01-18T21:21:01.040Z,7.07
2023-01-18T21:26:02.899Z,7.18
2023-01-18T21:31:05.554Z,14.70
2023-01-18T21:36:11.924Z,7.95
2023-01-18T21:41:32.641Z,14.25
2023-01-18T21:46:34.438Z,7.20
2023-01-18T21:51:54.813Z,6.40
2023-01-18T21:56:56.683Z,8.57
2023-01-18T22:01:58.596Z,7.20
2023-01-18T22:07:01.230Z,8.30
2023-01-18T22:12:02.982Z,10.10
2023-01-18T22:17:05.020Z,7.30
2023-01-18T22:22:06.937Z,6.97
2023-01-18T22:27:09.056Z,9.93
2023-01-18T22:32:10.802Z,7.68
2023-01-18T22:37:12.668Z,7.47
2023-01-18T22:42:15.585Z,7.95
2023-01-18T22:47:17.412Z,10.60
2023-01-18T22:52:19.489Z,9.85
2023-01-18T22:57:23.276Z,11.80
2023-01-18T23:02:25.109Z,12.63
2023-01-18T23:07:26.911Z,11.10
2023-01-18T23:12:28.733Z,12.13
2023-01-18T23:17:39.675Z,13.23
2023-01-18T23:22:41.590Z,14.82
2023-01-18T23:27:43.912Z,12.38
2023-01-18T23:32:45.883Z,13.35
2023-01-18T23:37:47.793Z,14.85
2023-01-18T23:43:11.846Z,15.65
2023-01-18T23:48:38.391Z,16.20
2023-01-18T23:53:58.761Z,12.82
2023-01-18T23:59:00.568Z,12.68
